createdAt,value
2023-09-30T00:01:14.656Z,6.65
2023-09-30T00:03:41.580Z,11.10
2023-09-30T00:06:08.183Z,9.45
2023-09-30T00:08:34.796Z,9.88
2023-09-30T00:11:01.373Z,9.02
2023-09-30T00:13:28.204Z,8.77
2023-09-30T00:15:55.021Z,6.72
2023-09-30T00:18:21.808Z,4.97
2023-09-30T00:20:48.566Z,9.70
2023-09-30T00:23:15.148Z,9.52
2023-09-30T00:25:41.844Z,13.02
2023-09-30T00:28:08.524Z,10.30
2023-09-30T00:30:35.161Z,9.15
2023-09-30T00:33:01.827Z,10.23
2023-09-30T00:35:28.449Z,10.85
2023-09-30T00:37:55.257Z,7.40
2023-09-30T00:40:22.468Z,9.30
2023-09-30T00:42:49.060Z,11.18
2023-09-30T00:47:41.720Z,10.18
2023-09-30T00:50:09.629Z,11.93
2023-09-30T00:52:37.307Z,8.18
2023-09-30T00:55:04.452Z,12.65
2023-09-30T00:59:59.620Z,7.18
2023-09-30T01:02:26.688Z,12.57
2023-09-30T01:07:21.252Z,7.40
2023-09-30T01:09:49.523Z,10.50
2023-09-30T01:12:16.057Z,7.80
2023-09-30T01:14:43.192Z,8.60
2023-09-30T01:17:10.094Z,9.10
2023-09-30T01:19:36.869Z,8.10
2023-09-30T01:22:03.496Z,7.53
2023-09-30T01:24:30.898Z,9.13
2023-09-30T01:26:58.231Z,11.27
2023-09-30T01:31:51.517Z,8.18
2023-09-30T01:34:18.267Z,9.18
2023-09-30T01:36:45.256Z,7.15
2023-09-30T01:39:12.595Z,7.35
2023-09-30T01:41:40.912Z,7.13
2023-09-30T01:44:08.319Z,8.00
2023-09-30T01:46:35.033Z,7.13
2023-09-30T01:49:03.229Z,6.38
2023-09-30T01:51:30.151Z,6.05
2023-09-30T01:53:57.057Z,8.48
2023-09-30T01:56:23.863Z,9.40
2023-09-30T01:58:50.599Z,7.32
2023-09-30T02:01:17.281Z,9.27
2023-09-30T02:03:44.017Z,10.85
2023-09-30T02:06:10.751Z,8.20
2023-09-30T02:08:37.354Z,10.00
2023-09-30T02:11:04.422Z,11.43
2023-09-30T02:13:34.045Z,8.15
2023-09-30T02:16:00.762Z,11.13
2023-09-30T02:18:27.385Z,12.40
2023-09-30T02:20:53.922Z,11.48
2023-09-30T02:23:20.573Z,8.02
2023-09-30T02:25:47.069Z,14.18
2023-09-30T02:28:13.699Z,10.18
2023-09-30T02:30:40.271Z,8.23
2023-09-30T02:33:06.938Z,10.93
2023-09-30T02:35:33.602Z,7.70
2023-09-30T02:38:04.766Z,5.97
2023-09-30T02:40:31.483Z,6.40
2023-09-30T02:42:57.998Z,9.20
2023-09-30T02:45:25.006Z,15.13
2023-09-30T02:47:51.657Z,8.43
2023-09-30T02:50:18.245Z,6.72
2023-09-30T02:52:45.523Z,9.40
2023-09-30T02:55:13.518Z,10.80
2023-09-30T02:57:40.515Z,9.68
2023-09-30T03:00:10.438Z,10.32
2023-09-30T03:02:37.536Z,6.68
2023-09-30T03:05:07.340Z,6.05
2023-09-30T03:07:33.921Z,6.90
2023-09-30T03:10:02.907Z,8.88
2023-09-30T03:12:29.489Z,6.53
2023-09-30T03:14:55.997Z,8.65
2023-09-30T03:17:22.549Z,10.38
2023-09-30T03:19:49.108Z,10.43
2023-09-30T03:22:15.667Z,7.35
2023-09-30T03:24:42.292Z,8.68
2023-09-30T03:27:09.418Z,8.88
2023-09-30T03:32:05.951Z,9.60
2023-09-30T03:34:32.556Z,6.60
2023-09-30T03:36:59.103Z,7.20
2023-09-30T03:39:26.053Z,10.88
2023-09-30T03:41:52.683Z,10.38
2023-09-30T03:44:19.266Z,11.45
2023-09-30T03:46:46.948Z,7.05
2023-09-30T03:49:13.459Z,6.90
2023-09-30T03:51:43.532Z,8.18
2023-09-30T03:54:10.187Z,7.47
2023-09-30T03:56:36.787Z,9.05
2023-09-30T03:59:05.052Z,7.50
2023-09-30T04:01:31.711Z,6.60
2023-09-30T04:03:58.588Z,5.68
2023-09-30T04:06:25.486Z,8.07
2023-09-30T04:08:52.092Z,6.03
2023-09-30T04:11:18.656Z,7.35
2023-09-30T04:13:45.933Z,5.88
2023-09-30T04:18:39.475Z,6.88
2023-09-30T04:21:06.096Z,7.07
2023-09-30T04:23:32.733Z,6.38
2023-09-30T04:25:59.416Z,6.95
2023-09-30T04:28:26.109Z,6.50
2023-09-30T04:30:52.800Z,7.45
2023-09-30T04:33:19.786Z,8.38
2023-09-30T04:38:11.729Z,7.00
2023-09-30T04:40:38.437Z,7.85
2023-09-30T04:43:05.114Z,9.65
2023-09-30T04:45:31.915Z,8.18
2023-09-30T04:47:58.480Z,10.77
2023-09-30T04:50:25.236Z,7.05
2023-09-30T04:52:52.711Z,6.18
2023-09-30T04:55:19.436Z,7.93
2023-09-30T04:57:47.469Z,7.45
2023-09-30T05:00:20.579Z,7.07
2023-09-30T05:02:48.325Z,8.63
2023-09-30T05:05:15.265Z,13.77
2023-09-30T05:07:42.161Z,6.93
2023-09-30T05:10:09.449Z,12.02
2023-09-30T05:15:02.579Z,9.95
2023-09-30T05:17:29.856Z,6.43
2023-09-30T05:20:00.203Z,10.02
2023-09-30T05:22:26.745Z,8.05
2023-09-30T05:24:53.524Z,7.82
2023-09-30T05:27:20.739Z,10.25
2023-09-30T05:34:40.420Z,9.02
2023-09-30T05:37:07.298Z,11.13
2023-09-30T05:39:36.313Z,8.18
2023-09-30T05:42:03.395Z,8.50
2023-09-30T05:44:30.305Z,7.25
2023-09-30T05:46:57.120Z,8.13
2023-09-30T05:49:24.898Z,7.65
2023-09-30T05:51:51.523Z,6.97
2023-09-30T05:54:20.316Z,9.98
2023-09-30T05:56:47.077Z,10.85
2023-09-30T05:59:14.710Z,7.40
2023-09-30T06:01:41.406Z,10.52
2023-09-30T06:04:08.065Z,9.73
2023-09-30T06:06:34.919Z,9.77
2023-09-30T06:09:01.803Z,8.23
2023-09-30T06:11:29.181Z,12.55
2023-09-30T06:13:56.316Z,9.23
2023-09-30T06:18:49.906Z,8.38
2023-09-30T06:21:16.570Z,12.45
2023-09-30T06:23:43.089Z,7.97
2023-09-30T06:26:13.433Z,8.07
2023-09-30T06:28:39.962Z,9.43
2023-09-30T06:31:07.278Z,12.82
2023-09-30T06:33:33.993Z,15.35
2023-09-30T06:36:00.597Z,11.10
2023-09-30T06:38:27.230Z,7.45
2023-09-30T06:40:53.817Z,10.10
2023-09-30T06:43:21.041Z,10.57
2023-09-30T06:45:47.884Z,8.63
2023-09-30T06:50:50.312Z,12.40
2023-09-30T06:53:17.758Z,10.80
2023-09-30T06:55:44.592Z,9.25
2023-09-30T06:58:11.687Z,11.73
2023-09-30T07:00:39.527Z,8.30
2023-09-30T07:03:06.857Z,13.98
2023-09-30T07:05:35.564Z,8.60
2023-09-30T07:08:02.273Z,9.85
2023-09-30T07:10:29.588Z,10.45
2023-09-30T07:12:56.777Z,7.15
2023-09-30T07:15:23.542Z,9.15
2023-09-30T07:17:50.250Z,7.22
2023-09-30T07:20:17.900Z,10.00
2023-09-30T07:22:55.737Z,8.93
2023-09-30T07:25:30.451Z,6.75
2023-09-30T07:27:58.844Z,9.68
2023-09-30T07:30:26.650Z,14.48
2023-09-30T07:32:53.489Z,10.27
2023-09-30T07:35:20.381Z,7.82
2023-09-30T07:37:46.990Z,8.60
2023-09-30T07:40:14.199Z,12.05
2023-09-30T07:42:42.178Z,9.57
2023-09-30T07:45:09.888Z,10.68
2023-09-30T07:47:37.881Z,9.18
2023-09-30T07:50:04.938Z,11.82
2023-09-30T07:52:34.183Z,12.52
2023-09-30T07:55:00.824Z,13.55
2023-09-30T07:57:27.444Z,7.90
2023-09-30T07:59:54.048Z,11.80
2023-09-30T08:02:20.592Z,8.93
2023-09-30T08:04:48.638Z,7.28
2023-09-30T08:07:15.323Z,7.25
2023-09-30T08:09:41.914Z,8.60
2023-09-30T08:12:08.994Z,10.40
2023-09-30T08:14:35.553Z,10.40
2023-09-30T08:17:03.215Z,11.45
2023-09-30T08:19:29.761Z,9.60
2023-09-30T08:21:58.275Z,11.18
2023-09-30T08:24:24.945Z,7.65
2023-09-30T08:26:51.603Z,7.18
2023-09-30T08:29:18.303Z,7.68
2023-09-30T08:34:15.038Z,5.13
2023-09-30T08:36:42.141Z,8.15
2023-09-30T08:39:08.798Z,8.27
2023-09-30T08:44:03.094Z,6.00
2023-09-30T08:46:34.577Z,8.68
2023-09-30T08:49:05.876Z,8.73
2023-09-30T08:51:33.266Z,8.13
2023-09-30T08:54:01.464Z,6.97
2023-09-30T08:56:29.635Z,11.00
2023-09-30T08:58:59.497Z,9.38
2023-09-30T09:01:28.897Z,7.82
2023-09-30T09:03:56.221Z,8.13
2023-09-30T09:06:27.425Z,10.05
2023-09-30T09:08:54.646Z,8.75
2023-09-30T09:11:21.498Z,6.47
2023-09-30T09:13:51.838Z,9.95
2023-09-30T09:16:19.462Z,9.25
2023-09-30T09:18:46.533Z,9.30
2023-09-30T09:21:15.513Z,9.55
2023-09-30T09:23:43.842Z,8.95
2023-09-30T09:26:12.327Z,7.85
2023-09-30T09:28:39.489Z,11.30
2023-09-30T09:31:21.479Z,6.35
2023-09-30T09:33:49.277Z,6.70
2023-09-30T09:36:16.545Z,7.68
2023-09-30T09:38:47.542Z,8.82
2023-09-30T09:41:14.185Z,8.07
2023-09-30T09:43:43.458Z,10.07
2023-09-30T09:46:10.772Z,14.25
2023-09-30T09:48:37.890Z,8.18
2023-09-30T09:51:10.032Z,10.35
2023-09-30T09:53:40.095Z,11.80
2023-09-30T09:56:09.610Z,7.72
2023-09-30T09:58:36.683Z,8.65
2023-09-30T10:01:03.507Z,12.30
2023-09-30T10:03:30.799Z,9.32
2023-09-30T10:05:57.823Z,9.18
2023-09-30T10:08:32.070Z,8.77
2023-09-30T10:10:58.905Z,8.70
2023-09-30T10:13:51.901Z,13.13
2023-09-30T10:16:37.535Z,9.07
2023-09-30T10:19:16.129Z,9.52
2023-09-30T10:22:19.953Z,6.22
2023-09-30T10:24:48.028Z,6.22
2023-09-30T10:27:27.704Z,8.88
2023-09-30T10:30:07.368Z,11.43
2023-09-30T10:32:53.335Z,9.05
2023-09-30T10:35:21.644Z,14.65
2023-09-30T10:37:49.598Z,8.00
2023-09-30T10:40:31.333Z,5.55
2023-09-30T10:42:58.230Z,12.63
2023-09-30T10:45:46.254Z,12.10
2023-09-30T10:48:32.191Z,8.43
2023-09-30T10:51:02.865Z,9.32
2023-09-30T10:53:29.790Z,8.25
2023-09-30T10:55:58.333Z,8.55
2023-09-30T10:58:44.869Z,9.10
2023-09-30T11:01:17.410Z,6.82
2023-09-30T11:03:45.501Z,9.18
2023-09-30T11:06:13.897Z,7.53
2023-09-30T11:08:46.912Z,4.97
2023-09-30T11:11:14.136Z,7.10
2023-09-30T11:13:40.905Z,7.57
2023-09-30T11:16:07.593Z,7.93
2023-09-30T11:18:34.220Z,8.15
2023-09-30T11:21:09.553Z,10.27
2023-09-30T11:23:36.825Z,7.63
2023-09-30T11:26:03.751Z,8.93
2023-09-30T11:28:46.523Z,3.97
2023-09-30T11:31:13.985Z,9.60
2023-09-30T11:33:54.768Z,8.00
2023-09-30T11:36:22.160Z,7.05
2023-09-30T11:38:50.673Z,7.65
2023-09-30T11:41:18.429Z,10.10
2023-09-30T11:44:14.056Z,10.43
2023-09-30T11:46:51.086Z,7.10
2023-09-30T11:49:38.609Z,12.18
2023-09-30T11:52:12.392Z,6.47
2023-09-30T11:54:41.059Z,8.90
2023-09-30T11:57:08.599Z,9.15
2023-09-30T11:59:35.261Z,9.82
2023-09-30T12:04:31.540Z,11.48
2023-09-30T12:06:58.391Z,7.95
2023-09-30T12:09:25.273Z,12.68
2023-09-30T12:11:52.855Z,5.07
2023-09-30T12:14:19.524Z,7.82
2023-09-30T12:16:46.249Z,4.88
2023-09-30T12:19:15.252Z,9.85
2023-09-30T12:21:42.675Z,6.15
2023-09-30T12:24:09.566Z,10.18
2023-09-30T12:26:40.506Z,9.25
2023-09-30T12:29:07.092Z,8.88
2023-09-30T12:31:46.154Z,7.38
2023-09-30T12:34:19.107Z,5.28
2023-09-30T12:36:45.873Z,5.95
2023-09-30T12:39:12.681Z,5.68
2023-09-30T12:41:45.655Z,6.97
2023-09-30T12:44:12.992Z,7.70
2023-09-30T12:46:39.541Z,5.82
2023-09-30T12:49:06.928Z,8.18
2023-09-30T12:51:37.354Z,6.47
2023-09-30T12:54:04.548Z,7.53
2023-09-30T12:56:31.290Z,7.65
2023-09-30T12:58:58.986Z,6.07
2023-09-30T13:01:26.630Z,7.00
2023-09-30T13:03:53.896Z,6.15
2023-09-30T13:06:21.059Z,6.03
2023-09-30T13:11:15.623Z,6.20
2023-09-30T13:13:42.331Z,5.95
2023-09-30T13:16:11.873Z,9.95
2023-09-30T13:18:38.594Z,8.02
2023-09-30T13:21:06.508Z,9.23
2023-09-30T13:23:33.656Z,12.27
2023-09-30T13:26:00.317Z,10.98
2023-09-30T13:28:28.148Z,5.70
2023-09-30T13:30:54.943Z,6.65
2023-09-30T13:33:22.625Z,9.18
2023-09-30T13:35:49.341Z,9.52
2023-09-30T13:38:16.220Z,10.63
2023-09-30T13:40:43.213Z,4.88
2023-09-30T13:43:10.012Z,12.77
2023-09-30T13:45:36.668Z,7.55
2023-09-30T13:48:03.893Z,8.13
2023-09-30T13:50:30.520Z,10.65
2023-09-30T13:52:57.116Z,12.70
2023-09-30T13:55:24.650Z,10.48
2023-09-30T13:57:51.452Z,6.75
2023-09-30T14:00:19.094Z,8.65
2023-09-30T14:02:45.851Z,5.88
2023-09-30T14:05:12.655Z,6.55
2023-09-30T14:07:39.415Z,12.48
2023-09-30T14:10:06.980Z,7.63
2023-09-30T14:12:33.908Z,7.32
2023-09-30T14:15:01.898Z,8.18
2023-09-30T14:17:30.267Z,6.45
2023-09-30T14:19:56.994Z,8.98
2023-09-30T14:22:23.660Z,4.93
2023-09-30T14:24:50.237Z,7.82
2023-09-30T14:27:17.417Z,5.18
2023-09-30T14:29:44.215Z,7.50
2023-09-30T14:32:11.021Z,6.45
2023-09-30T14:34:37.813Z,7.53
2023-09-30T14:37:04.572Z,7.55
2023-09-30T14:39:31.240Z,6.85
2023-09-30T14:41:57.861Z,9.95
2023-09-30T14:44:24.439Z,8.88
2023-09-30T14:46:51.183Z,12.63
2023-09-30T14:49:17.818Z,6.80
2023-09-30T14:51:44.560Z,9.15
2023-09-30T14:54:11.170Z,8.02
2023-09-30T14:56:37.750Z,8.20
2023-09-30T15:01:29.790Z,8.27
2023-09-30T15:03:56.744Z,5.55
2023-09-30T15:06:24.485Z,7.07
2023-09-30T15:08:52.453Z,8.27
2023-09-30T15:11:19.173Z,9.10
2023-09-30T15:13:46.778Z,10.25
2023-09-30T15:16:17.650Z,7.43
2023-09-30T15:18:44.346Z,12.07
2023-09-30T15:21:10.937Z,7.30
2023-09-30T15:23:37.719Z,5.00
2023-09-30T15:26:04.376Z,7.20
2023-09-30T15:28:31.135Z,13.35
2023-09-30T15:30:57.918Z,4.45
2023-09-30T15:33:24.692Z,8.35
2023-09-30T15:35:51.546Z,7.60
2023-09-30T15:38:18.854Z,9.23
2023-09-30T15:40:55.876Z,9.32
2023-09-30T15:43:22.629Z,10.32
2023-09-30T15:45:49.637Z,9.50
2023-09-30T15:48:16.328Z,9.25
2023-09-30T15:50:43.596Z,13.27
2023-09-30T15:53:11.255Z,12.27
2023-09-30T15:55:37.989Z,17.13
2023-09-30T15:58:05.733Z,11.45
2023-09-30T16:00:32.887Z,16.35
2023-09-30T16:02:59.684Z,15.88
2023-09-30T16:05:26.453Z,11.70
2023-09-30T16:07:53.391Z,8.77
2023-09-30T16:10:20.370Z,29.23
2023-09-30T16:12:47.179Z,15.10
2023-09-30T16:15:13.899Z,15.25
2023-09-30T16:17:40.594Z,22.92
2023-09-30T16:20:10.513Z,15.18
2023-09-30T16:22:37.132Z,21.63
2023-09-30T16:25:04.006Z,15.10
2023-09-30T16:27:33.070Z,12.00
2023-09-30T16:29:59.990Z,13.50
2023-09-30T16:32:28.194Z,19.00
2023-09-30T16:34:55.845Z,19.33
2023-09-30T16:37:22.445Z,25.27
2023-09-30T16:39:49.290Z,16.30
2023-09-30T16:42:15.806Z,38.45
2023-09-30T16:47:09.688Z,24.08
2023-09-30T16:49:37.820Z,26.13
2023-09-30T16:54:54.771Z,23.73
2023-09-30T16:59:48.097Z,22.35
2023-09-30T17:02:14.752Z,25.55
2023-09-30T17:07:13.030Z,24.00
2023-09-30T17:09:39.762Z,38.13
2023-09-30T17:12:07.161Z,40.83
2023-09-30T17:14:35.118Z,33.58
2023-09-30T17:17:02.448Z,21.25
2023-09-30T17:19:29.650Z,19.73
2023-09-30T17:21:56.564Z,26.85
2023-09-30T17:24:23.432Z,29.48
2023-09-30T17:26:51.327Z,17.08
2023-09-30T17:29:17.940Z,17.40
2023-09-30T17:31:44.976Z,20.08
2023-09-30T17:34:11.860Z,18.27
2023-09-30T17:36:38.970Z,29.05
2023-09-30T17:39:05.822Z,21.95
2023-09-30T17:41:36.482Z,26.63
2023-09-30T17:44:05.519Z,30.10
2023-09-30T17:46:32.316Z,28.48
2023-09-30T17:48:59.532Z,28.02
2023-09-30T17:51:27.464Z,25.08
2023-09-30T17:53:55.067Z,28.25
2023-09-30T17:56:22.512Z,30.95
2023-09-30T17:58:50.107Z,32.55
2023-09-30T18:01:17.812Z,29.40
2023-09-30T18:03:44.628Z,28.83
2023-09-30T18:08:39.272Z,20.95
2023-09-30T18:11:07.700Z,18.75
2023-09-30T18:13:34.246Z,23.60
2023-09-30T18:16:02.295Z,21.75
2023-09-30T18:18:30.133Z,25.48
2023-09-30T18:20:58.025Z,25.48
2023-09-30T18:23:24.629Z,20.40
2023-09-30T18:25:51.218Z,21.75
2023-09-30T18:28:18.069Z,20.38
2023-09-30T18:30:46.191Z,16.77
2023-09-30T18:33:15.675Z,17.92
2023-09-30T18:38:12.373Z,20.00
2023-09-30T18:40:39.195Z,17.33
2023-09-30T18:45:33.192Z,11.32
2023-09-30T18:47:59.797Z,11.30
2023-09-30T18:50:26.396Z,11.18
2023-09-30T18:52:54.270Z,14.60
2023-09-30T18:55:20.934Z,14.35
2023-09-30T18:57:47.581Z,15.13
2023-09-30T19:00:17.443Z,17.33
2023-09-30T19:02:44.482Z,17.90
2023-09-30T19:05:11.067Z,19.52
2023-09-30T19:07:40.560Z,19.75
2023-09-30T19:10:08.804Z,16.38
2023-09-30T19:12:35.411Z,19.17
2023-09-30T19:15:03.136Z,22.83
2023-09-30T19:17:29.758Z,18.25
2023-09-30T19:19:56.298Z,19.02
2023-09-30T19:22:22.869Z,19.15
2023-09-30T19:24:49.742Z,19.30
2023-09-30T19:29:44.125Z,17.40
2023-09-30T19:32:10.737Z,16.90
2023-09-30T19:34:37.258Z,20.38
2023-09-30T19:37:03.913Z,23.65
2023-09-30T19:39:30.770Z,24.95
2023-09-30T19:41:57.479Z,24.35
2023-09-30T19:44:25.371Z,23.00
2023-09-30T19:46:52.086Z,17.55
2023-09-30T19:49:18.878Z,19.48
2023-09-30T19:51:45.508Z,15.45
2023-09-30T19:54:12.566Z,16.63
2023-09-30T19:56:39.180Z,17.48
2023-09-30T19:59:07.088Z,12.18
2023-09-30T20:01:33.887Z,11.13
2023-09-30T20:04:00.774Z,29.33
2023-09-30T20:08:53.849Z,12.20
2023-09-30T20:11:25.341Z,11.90
2023-09-30T20:13:53.227Z,11.35
2023-09-30T20:16:21.341Z,13.52
2023-09-30T20:18:48.315Z,24.23
2023-09-30T20:23:42.177Z,14.05
2023-09-30T20:26:09.498Z,14.15
2023-09-30T20:31:06.172Z,14.57
2023-09-30T20:33:33.323Z,15.60
2023-09-30T20:35:59.888Z,20.85
2023-09-30T20:38:26.394Z,16.95
2023-09-30T20:40:52.925Z,19.17
2023-09-30T20:43:19.570Z,16.98
2023-09-30T20:45:46.159Z,13.13
2023-09-30T20:48:12.741Z,14.15
2023-09-30T20:50:39.330Z,24.23
2023-09-30T20:53:06.345Z,21.95
2023-09-30T20:55:34.205Z,16.98
2023-09-30T20:58:00.772Z,16.63
2023-09-30T21:00:27.696Z,20.05
2023-09-30T21:05:21.190Z,18.38
2023-09-30T21:07:47.917Z,18.38
2023-09-30T21:10:15.118Z,15.35
2023-09-30T21:12:41.774Z,24.08
2023-09-30T21:15:09.118Z,23.05
2023-09-30T21:17:36.904Z,20.95
2023-09-30T21:20:04.604Z,19.60
2023-09-30T21:22:32.733Z,21.83
2023-09-30T21:24:59.411Z,17.50
2023-09-30T21:27:26.067Z,17.98
2023-09-30T21:29:53.100Z,17.08
2023-09-30T21:34:47.405Z,17.73
2023-09-30T21:37:14.054Z,18.85
2023-09-30T21:39:41.157Z,13.95
2023-09-30T21:42:07.705Z,13.75
2023-09-30T21:44:34.526Z,13.25
2023-09-30T21:47:02.990Z,11.30
2023-09-30T21:49:30.482Z,12.80
2023-09-30T21:51:57.148Z,11.48
2023-09-30T21:54:29.024Z,9.77
2023-09-30T21:56:55.667Z,8.52
2023-09-30T21:59:23.244Z,12.70
2023-09-30T22:01:49.976Z,15.50
2023-09-30T22:04:16.722Z,7.50
2023-09-30T22:06:44.505Z,9.73
2023-09-30T22:09:11.148Z,11.07
2023-09-30T22:11:41.476Z,9.25
2023-09-30T22:14:08.335Z,10.07
2023-09-30T22:16:35.177Z,11.93
2023-09-30T22:21:30.001Z,10.30
2023-09-30T22:23:56.710Z,11.25
2023-09-30T22:26:23.277Z,12.00
2023-09-30T22:28:50.007Z,13.27
2023-09-30T22:31:16.806Z,14.07
2023-09-30T22:33:43.520Z,14.02
2023-09-30T22:36:10.096Z,12.30
2023-09-30T22:38:36.773Z,9.80
2023-09-30T22:41:03.497Z,8.20
2023-09-30T22:43:30.452Z,7.35
2023-09-30T22:48:23.588Z,11.25
2023-09-30T22:50:50.379Z,8.45
2023-09-30T22:53:17.293Z,7.60
2023-09-30T22:55:43.963Z,9.55
2023-09-30T22:58:10.615Z,11.32
2023-09-30T23:00:37.160Z,10.38
2023-09-30T23:03:05.052Z,10.10
2023-09-30T23:05:31.685Z,10.82
2023-09-30T23:07:58.330Z,12.90
2023-09-30T23:10:25.408Z,12.02
2023-09-30T23:12:52.140Z,9.18
2023-09-30T23:15:20.426Z,8.77
2023-09-30T23:17:49.315Z,9.70
2023-09-30T23:20:18.356Z,15.07
2023-09-30T23:22:47.140Z,9.80
2023-09-30T23:25:14.477Z,13.10
2023-09-30T23:27:41.034Z,10.32
2023-09-30T23:30:08.008Z,15.15
2023-09-30T23:32:34.766Z,10.30
2023-09-30T23:35:01.463Z,11.23
2023-09-30T23:37:27.975Z,12.70
2023-09-30T23:39:54.527Z,10.38
2023-09-30T23:42:21.134Z,9.38
2023-09-30T23:44:47.637Z,10.55
2023-09-30T23:47:14.271Z,10.25
2023-09-30T23:49:40.945Z,10.05
2023-09-30T23:52:07.521Z,9.38
2023-09-30T23:54:34.115Z,15.43
2023-09-30T23:57:00.682Z,11.75
